sensor_id;sensor_type;location;lat;lon;timestamp;P1;durP1;ratioP1;P2;durP2;ratioP2
73585;SDS011;61865;50.232;18.614;2023-09-30T00:02:17;23.40;;;11.35;;
73585;SDS011;61865;50.232;18.614;2023-09-30T00:04:39;18.98;;;10.80;;
73585;SDS011;61865;50.232;18.614;2023-09-30T00:07:02;22.50;;;10.73;;
73585;SDS011;61865;50.232;18.614;2023-09-30T00:09:25;23.02;;;11.43;;
73585;SDS011;61865;50.232;18.614;2023-09-30T00:11:47;16.40;;;10.05;;
73585;SDS011;61865;50.232;18.614;2023-09-30T00:14:10;18.75;;;10.00;;
73585;SDS011;61865;50.232;18.614;2023-09-30T00:16:33;16.70;;;9.82;;
73585;SDS011;61865;50.232;18.614;2023-09-30T00:18:56;16.75;;;9.98;;
73585;SDS011;61865;50.232;18.614;2023-09-30T00:21:18;16.45;;;10.07;;
73585;SDS011;61865;50.232;18.614;2023-09-30T00:23:40;13.77;;;9.25;;
73585;SDS011;61865;50.232;18.614;2023-09-30T00:26:02;17.70;;;10.00;;
73585;SDS011;61865;50.232;18.614;2023-09-30T00:28:25;16.63;;;9.98;;
73585;SDS011;61865;50.232;18.614;2023-09-30T00:30:49;14.13;;;9.27;;
73585;SDS011;61865;50.232;18.614;2023-09-30T00:33:12;27.65;;;9.45;;
73585;SDS011;61865;50.232;18.614;2023-09-30T00:35:34;15.57;;;8.95;;
73585;SDS011;61865;50.232;18.614;2023-09-30T00:37:57;16.27;;;8.23;;
73585;SDS011;61865;50.232;18.614;2023-09-30T00:40:19;17.17;;;8.80;;
73585;SDS011;61865;50.232;18.614;2023-09-30T00:42:41;12.50;;;8.05;;
73585;SDS011;61865;50.232;18.614;2023-09-30T00:45:04;13.68;;;8.43;;
73585;SDS011;61865;50.232;18.614;2023-09-30T00:47:28;16.92;;;8.35;;
73585;SDS011;61865;50.232;18.614;2023-09-30T00:49:50;12.57;;;7.45;;
73585;SDS011;61865;50.232;18.614;2023-09-30T00:52:13;13.15;;;7.82;;
73585;SDS011;61865;50.232;18.614;2023-09-30T00:54:35;12.13;;;7.53;;
73585;SDS011;61865;50.232;18.614;2023-09-30T00:56:58;13.77;;;8.13;;
73585;SDS011;61865;50.232;18.614;2023-09-30T00:59:21;13.05;;;7.80;;
73585;SDS011;61865;50.232;18.614;2023-09-30T01:01:45;15.77;;;8.30;;
73585;SDS011;61865;50.232;18.614;2023-09-30T01:04:09;14.80;;;7.95;;
73585;SDS011;61865;50.232;18.614;2023-09-30T01:06:31;13.93;;;8.43;;
73585;SDS011;61865;50.232;18.614;2023-09-30T01:08:54;16.58;;;7.95;;
73585;SDS011;61865;50.232;18.614;2023-09-30T01:11:16;16.73;;;7.65;;
73585;SDS011;61865;50.232;18.614;2023-09-30T01:13:38;14.23;;;7.88;;
73585;SDS011;61865;50.232;18.614;2023-09-30T01:16:03;14.77;;;7.35;;
73585;SDS011;61865;50.232;18.614;2023-09-30T01:18:26;13.43;;;7.60;;
73585;SDS011;61865;50.232;18.614;2023-09-30T01:20:49;16.42;;;8.82;;
73585;SDS011;61865;50.232;18.614;2023-09-30T01:23:14;13.68;;;8.30;;
73585;SDS011;61865;50.232;18.614;2023-09-30T01:25:37;11.10;;;7.28;;
73585;SDS011;61865;50.232;18.614;2023-09-30T01:27:59;13.88;;;8.30;;
73585;SDS011;61865;50.232;18.614;2023-09-30T01:30:26;12.15;;;7.38;;
73585;SDS011;61865;50.232;18.614;2023-09-30T01:32:48;11.13;;;7.00;;
73585;SDS011;61865;50.232;18.614;2023-09-30T01:35:11;14.93;;;7.28;;
73585;SDS011;61865;50.232;18.614;2023-09-30T01:37:33;16.23;;;7.57;;
73585;SDS011;61865;50.232;18.614;2023-09-30T01:39:57;16.30;;;8.23;;
73585;SDS011;61865;50.232;18.614;2023-09-30T01:42:19;12.25;;;7.72;;
73585;SDS011;61865;50.232;18.614;2023-09-30T01:44:41;16.05;;;7.25;;
73585;SDS011;61865;50.232;18.614;2023-09-30T01:47:03;12.90;;;6.97;;
73585;SDS011;61865;50.232;18.614;2023-09-30T01:49:26;13.50;;;7.03;;
73585;SDS011;61865;50.232;18.614;2023-09-30T01:51:48;18.25;;;7.38;;
73585;SDS011;61865;50.232;18.614;2023-09-30T01:54:10;11.13;;;6.90;;
73585;SDS011;61865;50.232;18.614;2023-09-30T01:56:34;15.23;;;7.07;;
73585;SDS011;61865;50.232;18.614;2023-09-30T01:58:56;10.90;;;7.35;;
73585;SDS011;61865;50.232;18.614;2023-09-30T02:01:18;11.73;;;7.70;;
73585;SDS011;61865;50.232;18.614;2023-09-30T02:03:41;18.95;;;7.43;;
73585;SDS011;61865;50.232;18.614;2023-09-30T02:06:03;13.32;;;7.10;;
73585;SDS011;61865;50.232;18.614;2023-09-30T02:08:25;16.30;;;8.18;;
73585;SDS011;61865;50.232;18.614;2023-09-30T02:10:47;18.58;;;8.43;;
73585;SDS011;61865;50.232;18.614;2023-09-30T02:13:12;15.93;;;8.52;;
73585;SDS011;61865;50.232;18.614;2023-09-30T02:15:35;19.30;;;8.68;;
73585;SDS011;61865;50.232;18.614;2023-09-30T02:17:57;18.08;;;8.43;;
73585;SDS011;61865;50.232;18.614;2023-09-30T02:20:20;15.18;;;7.68;;
73585;SDS011;61865;50.232;18.614;2023-09-30T02:22:45;14.10;;;8.50;;
73585;SDS011;61865;50.232;18.614;2023-09-30T02:25:09;11.80;;;7.38;;
73585;SDS011;61865;50.232;18.614;2023-09-30T02:27:32;16.65;;;8.10;;
73585;SDS011;61865;50.232;18.614;2023-09-30T02:29:56;15.00;;;7.93;;
73585;SDS011;61865;50.232;18.614;2023-09-30T02:32:18;15.63;;;8.70;;
73585;SDS011;61865;50.232;18.614;2023-09-30T02:34:41;14.45;;;9.02;;
73585;SDS011;61865;50.232;18.614;2023-09-30T02:37:04;13.80;;;9.20;;
73585;SDS011;61865;50.232;18.614;2023-09-30T02:39:27;12.60;;;8.02;;
73585;SDS011;61865;50.232;18.614;2023-09-30T02:41:49;16.52;;;8.40;;
73585;SDS011;61865;50.232;18.614;2023-09-30T02:44:12;10.73;;;7.90;;
73585;SDS011;61865;50.232;18.614;2023-09-30T02:46:36;14.00;;;8.68;;
73585;SDS011;61865;50.232;18.614;2023-09-30T02:49:00;15.00;;;8.38;;
73585;SDS011;61865;50.232;18.614;2023-09-30T02:51:23;12.75;;;8.23;;
73585;SDS011;61865;50.232;18.614;2023-09-30T02:53:45;17.58;;;7.85;;
73585;SDS011;61865;50.232;18.614;2023-09-30T02:56:08;16.35;;;8.48;;
73585;SDS011;61865;50.232;18.614;2023-09-30T02:58:30;18.15;;;8.02;;
73585;SDS011;61865;50.232;18.614;2023-09-30T03:00:52;14.07;;;7.95;;
73585;SDS011;61865;50.232;18.614;2023-09-30T03:03:16;14.73;;;7.97;;
73585;SDS011;61865;50.232;18.614;2023-09-30T03:05:38;13.60;;;7.78;;
73585;SDS011;61865;50.232;18.614;2023-09-30T03:08:01;12.30;;;7.22;;
73585;SDS011;61865;50.232;18.614;2023-09-30T03:10:23;9.95;;;6.90;;
73585;SDS011;61865;50.232;18.614;2023-09-30T03:12:46;17.90;;;8.68;;
73585;SDS011;61865;50.232;18.614;2023-09-30T03:15:09;13.38;;;7.78;;
73585;SDS011;61865;50.232;18.614;2023-09-30T03:17:33;16.08;;;8.23;;
73585;SDS011;61865;50.232;18.614;2023-09-30T03:20:00;15.82;;;7.93;;
73585;SDS011;61865;50.232;18.614;2023-09-30T03:22:29;13.50;;;7.97;;
73585;SDS011;61865;50.232;18.614;2023-09-30T03:24:51;11.88;;;7.55;;
73585;SDS011;61865;50.232;18.614;2023-09-30T03:27:14;11.27;;;8.40;;
73585;SDS011;61865;50.232;18.614;2023-09-30T03:29:36;15.23;;;8.02;;
73585;SDS011;61865;50.232;18.614;2023-09-30T03:31:59;16.05;;;8.55;;
73585;SDS011;61865;50.232;18.614;2023-09-30T03:34:21;12.15;;;9.02;;
73585;SDS011;61865;50.232;18.614;2023-09-30T03:36:45;14.77;;;8.57;;
73585;SDS011;61865;50.232;18.614;2023-09-30T03:39:07;10.65;;;7.72;;
73585;SDS011;61865;50.232;18.614;2023-09-30T03:41:34;18.25;;;7.78;;
73585;SDS011;61865;50.232;18.614;2023-09-30T03:43:57;11.25;;;7.63;;
73585;SDS011;61865;50.232;18.614;2023-09-30T03:46:19;11.93;;;7.38;;
73585;SDS011;61865;50.232;18.614;2023-09-30T03:48:42;10.50;;;7.43;;
73585;SDS011;61865;50.232;18.614;2023-09-30T03:51:08;17.20;;;7.75;;
73585;SDS011;61865;50.232;18.614;2023-09-30T03:53:34;12.75;;;7.30;;
73585;SDS011;61865;50.232;18.614;2023-09-30T03:55:57;17.05;;;7.78;;
73585;SDS011;61865;50.232;18.614;2023-09-30T03:58:19;13.93;;;7.32;;
73585;SDS011;61865;50.232;18.614;2023-09-30T04:00:41;16.52;;;7.90;;
73585;SDS011;61865;50.232;18.614;2023-09-30T04:03:04;10.15;;;7.07;;
73585;SDS011;61865;50.232;18.614;2023-09-30T04:05:26;14.15;;;6.75;;
73585;SDS011;61865;50.232;18.614;2023-09-30T04:07:52;13.98;;;7.93;;
73585;SDS011;61865;50.232;18.614;2023-09-30T04:10:15;9.38;;;7.05;;
73585;SDS011;61865;50.232;18.614;2023-09-30T04:12:38;14.45;;;8.10;;
73585;SDS011;61865;50.232;18.614;2023-09-30T04:15:00;10.05;;;7.05;;
73585;SDS011;61865;50.232;18.614;2023-09-30T04:17:24;13.90;;;7.43;;
73585;SDS011;61865;50.232;18.614;2023-09-30T04:19:47;12.15;;;7.68;;
73585;SDS011;61865;50.232;18.614;2023-09-30T04:22:11;11.60;;;7.53;;
73585;SDS011;61865;50.232;18.614;2023-09-30T04:24:36;13.10;;;7.55;;
73585;SDS011;61865;50.232;18.614;2023-09-30T04:27:00;15.30;;;7.35;;
73585;SDS011;61865;50.232;18.614;2023-09-30T04:29:26;13.82;;;7.65;;
73585;SDS011;61865;50.232;18.614;2023-09-30T04:31:49;18.98;;;7.60;;
73585;SDS011;61865;50.232;18.614;2023-09-30T04:34:12;13.35;;;7.43;;
73585;SDS011;61865;50.232;18.614;2023-09-30T04:36:35;13.90;;;7.57;;
73585;SDS011;61865;50.232;18.614;2023-09-30T04:38:58;9.38;;;6.90;;
73585;SDS011;61865;50.232;18.614;2023-09-30T04:41:21;10.30;;;7.00;;
73585;SDS011;61865;50.232;18.614;2023-09-30T04:43:47;11.70;;;6.97;;
73585;SDS011;61865;50.232;18.614;2023-09-30T04:46:10;13.25;;;7.05;;
73585;SDS011;61865;50.232;18.614;2023-09-30T04:48:32;11.10;;;6.50;;
73585;SDS011;61865;50.232;18.614;2023-09-30T04:50:55;8.80;;;6.55;;
73585;SDS011;61865;50.232;18.614;2023-09-30T04:53:17;9.55;;;6.63;;
73585;SDS011;61865;50.232;18.614;2023-09-30T04:55:39;10.52;;;6.80;;
73585;SDS011;61865;50.232;18.614;2023-09-30T04:58:02;12.02;;;7.25;;
73585;SDS011;61865;50.232;18.614;2023-09-30T05:00:26;12.32;;;7.57;;
73585;SDS011;61865;50.232;18.614;2023-09-30T05:02:50;15.05;;;7.03;;
73585;SDS011;61865;50.232;18.614;2023-09-30T05:05:14;11.13;;;7.25;;
73585;SDS011;61865;50.232;18.614;2023-09-30T05:07:36;10.70;;;7.32;;
73585;SDS011;61865;50.232;18.614;2023-09-30T05:09:58;10.88;;;7.50;;
73585;SDS011;61865;50.232;18.614;2023-09-30T05:12:25;11.63;;;7.30;;
73585;SDS011;61865;50.232;18.614;2023-09-30T05:14:47;14.55;;;7.55;;
73585;SDS011;61865;50.232;18.614;2023-09-30T05:17:10;13.40;;;7.00;;
73585;SDS011;61865;50.232;18.614;2023-09-30T05:19:33;10.40;;;6.93;;
73585;SDS011;61865;50.232;18.614;2023-09-30T05:21:56;12.90;;;6.93;;
73585;SDS011;61865;50.232;18.614;2023-09-30T05:24:21;9.45;;;6.70;;
73585;SDS011;61865;50.232;18.614;2023-09-30T05:26:43;10.60;;;7.60;;
73585;SDS011;61865;50.232;18.614;2023-09-30T05:29:05;9.60;;;7.40;;
73585;SDS011;61865;50.232;18.614;2023-09-30T05:31:28;9.63;;;7.30;;
73585;SDS011;61865;50.232;18.614;2023-09-30T05:33:52;10.27;;;8.13;;
73585;SDS011;61865;50.232;18.614;2023-09-30T05:36:15;10.25;;;7.15;;
73585;SDS011;61865;50.232;18.614;2023-09-30T05:38:37;15.40;;;8.23;;
73585;SDS011;61865;50.232;18.614;2023-09-30T05:40:59;14.75;;;8.38;;
73585;SDS011;61865;50.232;18.614;2023-09-30T05:43:22;13.95;;;8.68;;
73585;SDS011;61865;50.232;18.614;2023-09-30T05:45:44;12.27;;;7.63;;
73585;SDS011;61865;50.232;18.614;2023-09-30T05:48:09;17.20;;;8.05;;
73585;SDS011;61865;50.232;18.614;2023-09-30T05:50:33;15.07;;;7.63;;
73585;SDS011;61865;50.232;18.614;2023-09-30T05:52:56;11.50;;;7.60;;
73585;SDS011;61865;50.232;18.614;2023-09-30T05:55:19;11.70;;;7.38;;
73585;SDS011;61865;50.232;18.614;2023-09-30T05:57:42;14.38;;;7.45;;
73585;SDS011;61865;50.232;18.614;2023-09-30T06:00:04;11.75;;;8.50;;
73585;SDS011;61865;50.232;18.614;2023-09-30T06:02:40;12.63;;;8.15;;
73585;SDS011;61865;50.232;18.614;2023-09-30T06:05:03;11.15;;;7.97;;
73585;SDS011;61865;50.232;18.614;2023-09-30T06:07:27;10.20;;;6.95;;
73585;SDS011;61865;50.232;18.614;2023-09-30T06:09:49;10.05;;;7.10;;
73585;SDS011;61865;50.232;18.614;2023-09-30T06:12:11;11.25;;;7.63;;
73585;SDS011;61865;50.232;18.614;2023-09-30T06:14:33;10.95;;;7.53;;
73585;SDS011;61865;50.232;18.614;2023-09-30T06:16:56;16.45;;;7.32;;
73585;SDS011;61865;50.232;18.614;2023-09-30T06:19:18;10.50;;;7.35;;
73585;SDS011;61865;50.232;18.614;2023-09-30T06:21:41;9.13;;;6.78;;
73585;SDS011;61865;50.232;18.614;2023-09-30T06:24:05;10.75;;;7.50;;
73585;SDS011;61865;50.232;18.614;2023-09-30T06:26:27;9.98;;;6.80;;
73585;SDS011;61865;50.232;18.614;2023-09-30T06:28:50;10.50;;;6.88;;
73585;SDS011;61865;50.232;18.614;2023-09-30T06:31:14;11.93;;;7.22;;
73585;SDS011;61865;50.232;18.614;2023-09-30T06:33:37;11.65;;;7.43;;
73585;SDS011;61865;50.232;18.614;2023-09-30T06:36:00;10.38;;;7.25;;
73585;SDS011;61865;50.232;18.614;2023-09-30T06:38:23;11.93;;;7.05;;
73585;SDS011;61865;50.232;18.614;2023-09-30T06:40:47;14.35;;;7.53;;
73585;SDS011;61865;50.232;18.614;2023-09-30T06:43:10;11.40;;;7.22;;
73585;SDS011;61865;50.232;18.614;2023-09-30T06:45:32;12.02;;;7.32;;
73585;SDS011;61865;50.232;18.614;2023-09-30T06:47:55;17.83;;;11.23;;
73585;SDS011;61865;50.232;18.614;2023-09-30T06:50:18;14.57;;;9.75;;
73585;SDS011;61865;50.232;18.614;2023-09-30T06:52:42;14.20;;;8.52;;
73585;SDS011;61865;50.232;18.614;2023-09-30T06:55:05;11.82;;;9.02;;
73585;SDS011;61865;50.232;18.614;2023-09-30T06:57:29;11.93;;;8.50;;
73585;SDS011;61865;50.232;18.614;2023-09-30T06:59:51;10.40;;;8.00;;
73585;SDS011;61865;50.232;18.614;2023-09-30T07:02:15;11.75;;;8.02;;
73585;SDS011;61865;50.232;18.614;2023-09-30T07:04:37;11.23;;;7.97;;
73585;SDS011;61865;50.232;18.614;2023-09-30T07:06:59;10.50;;;7.80;;
73585;SDS011;61865;50.232;18.614;2023-09-30T07:09:22;12.82;;;8.93;;
73585;SDS011;61865;50.232;18.614;2023-09-30T07:11:44;15.20;;;8.65;;
73585;SDS011;61865;50.232;18.614;2023-09-30T07:14:07;14.65;;;8.65;;
73585;SDS011;61865;50.232;18.614;2023-09-30T07:16:30;12.18;;;9.35;;
73585;SDS011;61865;50.232;18.614;2023-09-30T07:18:52;11.98;;;9.20;;
73585;SDS011;61865;50.232;18.614;2023-09-30T07:21:15;13.68;;;9.15;;
73585;SDS011;61865;50.232;18.614;2023-09-30T07:23:37;14.75;;;9.35;;
73585;SDS011;61865;50.232;18.614;2023-09-30T07:26:01;18.55;;;9.88;;
73585;SDS011;61865;50.232;18.614;2023-09-30T07:28:23;13.50;;;9.32;;
73585;SDS011;61865;50.232;18.614;2023-09-30T07:30:48;17.95;;;10.20;;
73585;SDS011;61865;50.232;18.614;2023-09-30T07:33:10;13.48;;;9.73;;
73585;SDS011;61865;50.232;18.614;2023-09-30T07:35:33;14.35;;;10.35;;
73585;SDS011;61865;50.232;18.614;2023-09-30T07:37:55;20.08;;;9.82;;
73585;SDS011;61865;50.232;18.614;2023-09-30T07:40:18;15.85;;;10.18;;
73585;SDS011;61865;50.232;18.614;2023-09-30T07:42:41;15.80;;;10.13;;
73585;SDS011;61865;50.232;18.614;2023-09-30T07:45:03;14.00;;;10.32;;
73585;SDS011;61865;50.232;18.614;2023-09-30T07:47:27;16.40;;;10.98;;
73585;SDS011;61865;50.232;18.614;2023-09-30T07:49:50;13.63;;;10.85;;
73585;SDS011;61865;50.232;18.614;2023-09-30T07:52:13;16.88;;;12.10;;
73585;SDS011;61865;50.232;18.614;2023-09-30T07:54:35;16.92;;;11.68;;
73585;SDS011;61865;50.232;18.614;2023-09-30T07:56:57;15.50;;;11.88;;
73585;SDS011;61865;50.232;18.614;2023-09-30T07:59:20;17.42;;;11.82;;
73585;SDS011;61865;50.232;18.614;2023-09-30T08:01:42;19.83;;;13.35;;
73585;SDS011;61865;50.232;18.614;2023-09-30T08:04:06;16.63;;;12.57;;
73585;SDS011;61865;50.232;18.614;2023-09-30T08:06:28;16.55;;;13.00;;
73585;SDS011;61865;50.232;18.614;2023-09-30T08:08:51;20.58;;;14.40;;
73585;SDS011;61865;50.232;18.614;2023-09-30T08:11:15;23.70;;;14.40;;
73585;SDS011;61865;50.232;18.614;2023-09-30T08:13:37;19.25;;;13.88;;
73585;SDS011;61865;50.232;18.614;2023-09-30T08:15:59;22.85;;;15.05;;
73585;SDS011;61865;50.232;18.614;2023-09-30T08:18:22;22.08;;;15.93;;
73585;SDS011;61865;50.232;18.614;2023-09-30T08:20:45;23.15;;;16.30;;
73585;SDS011;61865;50.232;18.614;2023-09-30T08:23:09;20.80;;;16.63;;
73585;SDS011;61865;50.232;18.614;2023-09-30T08:25:31;23.63;;;17.23;;
73585;SDS011;61865;50.232;18.614;2023-09-30T08:27:53;21.92;;;17.48;;
73585;SDS011;61865;50.232;18.614;2023-09-30T08:30:16;28.58;;;19.40;;
73585;SDS011;61865;50.232;18.614;2023-09-30T08:32:38;32.38;;;20.77;;
73585;SDS011;61865;50.232;18.614;2023-09-30T08:35:01;29.02;;;18.95;;
73585;SDS011;61865;50.232;18.614;2023-09-30T08:37:25;32.67;;;21.17;;
73585;SDS011;61865;50.232;18.614;2023-09-30T08:39:47;27.10;;;18.88;;
73585;SDS011;61865;50.232;18.614;2023-09-30T08:42:10;29.90;;;20.23;;
73585;SDS011;61865;50.232;18.614;2023-09-30T08:44:32;25.75;;;18.90;;
73585;SDS011;61865;50.232;18.614;2023-09-30T08:46:55;24.73;;;17.63;;
73585;SDS011;61865;50.232;18.614;2023-09-30T08:49:18;23.73;;;17.75;;
73585;SDS011;61865;50.232;18.614;2023-09-30T08:51:41;22.52;;;15.18;;
73585;SDS011;61865;50.232;18.614;2023-09-30T08:54:06;27.38;;;17.55;;
73585;SDS011;61865;50.232;18.614;2023-09-30T08:56:29;25.88;;;18.02;;
73585;SDS011;61865;50.232;18.614;2023-09-30T08:58:53;24.40;;;19.58;;
73585;SDS011;61865;50.232;18.614;2023-09-30T09:01:16;26.02;;;19.52;;
73585;SDS011;61865;50.232;18.614;2023-09-30T09:03:38;22.52;;;17.90;;
73585;SDS011;61865;50.232;18.614;2023-09-30T09:06:00;23.25;;;17.75;;
73585;SDS011;61865;50.232;18.614;2023-09-30T09:08:23;24.48;;;16.42;;
73585;SDS011;61865;50.232;18.614;2023-09-30T09:10:54;35.53;;;17.52;;
73585;SDS011;61865;50.232;18.614;2023-09-30T09:13:17;28.60;;;18.08;;
73585;SDS011;61865;50.232;18.614;2023-09-30T09:15:39;31.58;;;19.25;;
73585;SDS011;61865;50.232;18.614;2023-09-30T09:18:03;26.92;;;18.13;;
73585;SDS011;61865;50.232;18.614;2023-09-30T09:20:25;28.70;;;20.10;;
73585;SDS011;61865;50.232;18.614;2023-09-30T09:22:49;33.75;;;21.13;;
73585;SDS011;61865;50.232;18.614;2023-09-30T09:25:13;27.90;;;19.85;;
73585;SDS011;61865;50.232;18.614;2023-09-30T09:27:37;27.88;;;19.27;;
73585;SDS011;61865;50.232;18.614;2023-09-30T09:30:07;28.88;;;21.30;;
73585;SDS011;61865;50.232;18.614;2023-09-30T09:32:35;30.67;;;19.60;;
73585;SDS011;61865;50.232;18.614;2023-09-30T09:34:59;27.55;;;20.40;;
73585;SDS011;61865;50.232;18.614;2023-09-30T09:37:23;31.75;;;21.65;;
73585;SDS011;61865;50.232;18.614;2023-09-30T09:39:49;32.63;;;21.20;;
73585;SDS011;61865;50.232;18.614;2023-09-30T09:42:10;32.22;;;22.23;;
73585;SDS011;61865;50.232;18.614;2023-09-30T09:44:34;40.60;;;27.85;;
73585;SDS011;61865;50.232;18.614;2023-09-30T09:46:58;32.72;;;23.05;;
73585;SDS011;61865;50.232;18.614;2023-09-30T09:49:23;35.28;;;23.42;;
73585;SDS011;61865;50.232;18.614;2023-09-30T09:51:49;31.60;;;20.33;;
73585;SDS011;61865;50.232;18.614;2023-09-30T09:54:12;29.60;;;20.75;;
73585;SDS011;61865;50.232;18.614;2023-09-30T09:56:34;25.80;;;19.00;;
73585;SDS011;61865;50.232;18.614;2023-09-30T09:58:59;25.65;;;18.38;;
73585;SDS011;61865;50.232;18.614;2023-09-30T10:01:25;24.90;;;17.45;;
73585;SDS011;61865;50.232;18.614;2023-09-30T10:03:48;23.27;;;16.65;;
73585;SDS011;61865;50.232;18.614;2023-09-30T10:06:10;25.55;;;18.15;;
73585;SDS011;61865;50.232;18.614;2023-09-30T10:08:33;30.23;;;17.70;;
73585;SDS011;61865;50.232;18.614;2023-09-30T10:10:57;29.33;;;20.15;;
73585;SDS011;61865;50.232;18.614;2023-09-30T10:16:00;12.27;;;8.50;;
73585;SDS011;61865;50.232;18.614;2023-09-30T10:18:24;17.38;;;10.38;;
73585;SDS011;61865;50.232;18.614;2023-09-30T10:20:47;17.38;;;9.73;;
73585;SDS011;61865;50.232;18.614;2023-09-30T10:23:19;15.38;;;9.48;;
73585;SDS011;61865;50.232;18.614;2023-09-30T10:25:42;16.40;;;10.55;;
73585;SDS011;61865;50.232;18.614;2023-09-30T10:31:07;21.15;;;11.57;;
73585;SDS011;61865;50.232;18.614;2023-09-30T10:33:31;22.38;;;11.88;;
73585;SDS011;61865;50.232;18.614;2023-09-30T10:35:53;22.15;;;10.85;;
73585;SDS011;61865;50.232;18.614;2023-09-30T10:40:56;22.15;;;12.30;;
73585;SDS011;61865;50.232;18.614;2023-09-30T10:43:28;21.20;;;12.50;;
73585;SDS011;61865;50.232;18.614;2023-09-30T10:45:52;22.77;;;11.80;;
73585;SDS011;61865;50.232;18.614;2023-09-30T10:50:57;20.55;;;10.75;;
73585;SDS011;61865;50.232;18.614;2023-09-30T10:53:20;18.20;;;10.43;;
73585;SDS011;61865;50.232;18.614;2023-09-30T10:55:44;26.23;;;11.85;;
73585;SDS011;61865;50.232;18.614;2023-09-30T10:58:08;28.17;;;11.93;;
73585;SDS011;61865;50.232;18.614;2023-09-30T11:00:30;23.13;;;13.07;;
73585;SDS011;61865;50.232;18.614;2023-09-30T11:02:53;27.20;;;13.85;;
73585;SDS011;61865;50.232;18.614;2023-09-30T11:05:15;33.75;;;18.42;;
73585;SDS011;61865;50.232;18.614;2023-09-30T11:07:39;30.27;;;15.65;;
73585;SDS011;61865;50.232;18.614;2023-09-30T11:10:02;25.48;;;14.60;;
73585;SDS011;61865;50.232;18.614;2023-09-30T11:12:24;30.45;;;13.30;;
73585;SDS011;61865;50.232;18.614;2023-09-30T11:14:47;36.00;;;17.17;;
73585;SDS011;61865;50.232;18.614;2023-09-30T11:17:11;27.95;;;14.02;;
73585;SDS011;61865;50.232;18.614;2023-09-30T11:19:34;29.70;;;14.60;;
73585;SDS011;61865;50.232;18.614;2023-09-30T11:21:57;30.35;;;16.45;;
73585;SDS011;61865;50.232;18.614;2023-09-30T11:24:21;28.38;;;14.55;;
73585;SDS011;61865;50.232;18.614;2023-09-30T11:26:43;27.00;;;14.63;;
73585;SDS011;61865;50.232;18.614;2023-09-30T11:29:07;32.08;;;15.68;;
73585;SDS011;61865;50.232;18.614;2023-09-30T11:31:29;30.55;;;14.85;;
73585;SDS011;61865;50.232;18.614;2023-09-30T11:33:54;28.50;;;14.85;;
73585;SDS011;61865;50.232;18.614;2023-09-30T11:36:18;24.40;;;13.77;;
73585;SDS011;61865;50.232;18.614;2023-09-30T11:38:44;31.73;;;14.38;;
73585;SDS011;61865;50.232;18.614;2023-09-30T11:41:08;33.70;;;17.02;;
73585;SDS011;61865;50.232;18.614;2023-09-30T11:43:31;31.02;;;14.68;;
73585;SDS011;61865;50.232;18.614;2023-09-30T11:46:03;31.27;;;16.30;;
73585;SDS011;61865;50.232;18.614;2023-09-30T11:48:25;33.50;;;14.48;;
73585;SDS011;61865;50.232;18.614;2023-09-30T11:50:48;25.17;;;14.35;;
73585;SDS011;61865;50.232;18.614;2023-09-30T11:53:15;30.48;;;13.35;;
73585;SDS011;61865;50.232;18.614;2023-09-30T11:55:37;23.95;;;12.45;;
73585;SDS011;61865;50.232;18.614;2023-09-30T11:58:01;26.75;;;13.65;;
73585;SDS011;61865;50.232;18.614;2023-09-30T12:00:23;22.60;;;14.13;;
73585;SDS011;61865;50.232;18.614;2023-09-30T12:02:45;31.38;;;13.27;;
73585;SDS011;61865;50.232;18.614;2023-09-30T12:05:08;24.77;;;12.75;;
73585;SDS011;61865;50.232;18.614;2023-09-30T12:07:31;24.35;;;12.13;;
73585;SDS011;61865;50.232;18.614;2023-09-30T12:09:53;21.45;;;12.07;;
73585;SDS011;61865;50.232;18.614;2023-09-30T12:12:15;21.98;;;12.27;;
73585;SDS011;61865;50.232;18.614;2023-09-30T12:14:39;22.73;;;12.35;;
73585;SDS011;61865;50.232;18.614;2023-09-30T12:17:01;24.85;;;13.27;;
73585;SDS011;61865;50.232;18.614;2023-09-30T12:19:24;22.75;;;12.13;;
73585;SDS011;61865;50.232;18.614;2023-09-30T12:21:46;22.08;;;11.90;;
73585;SDS011;61865;50.232;18.614;2023-09-30T12:24:08;24.10;;;12.73;;
73585;SDS011;61865;50.232;18.614;2023-09-30T12:26:34;24.63;;;12.88;;
73585;SDS011;61865;50.232;18.614;2023-09-30T12:28:56;25.05;;;13.27;;
73585;SDS011;61865;50.232;18.614;2023-09-30T12:31:20;15.27;;;10.68;;
73585;SDS011;61865;50.232;18.614;2023-09-30T12:33:43;20.65;;;10.80;;
73585;SDS011;61865;50.232;18.614;2023-09-30T12:36:10;23.70;;;10.02;;
73585;SDS011;61865;50.232;18.614;2023-09-30T12:38:33;16.70;;;9.65;;
73585;SDS011;61865;50.232;18.614;2023-09-30T12:40:55;17.35;;;10.80;;
73585;SDS011;61865;50.232;18.614;2023-09-30T12:43:18;13.65;;;8.75;;
73585;SDS011;61865;50.232;18.614;2023-09-30T12:45:41;13.48;;;7.10;;
73585;SDS011;61865;50.232;18.614;2023-09-30T12:48:04;9.90;;;6.78;;
73585;SDS011;61865;50.232;18.614;2023-09-30T12:50:27;11.65;;;6.25;;
73585;SDS011;61865;50.232;18.614;2023-09-30T12:52:49;12.55;;;6.28;;
73585;SDS011;61865;50.232;18.614;2023-09-30T12:55:11;12.45;;;6.70;;
73585;SDS011;61865;50.232;18.614;2023-09-30T12:57:34;12.02;;;5.78;;
73585;SDS011;61865;50.232;18.614;2023-09-30T12:59:56;13.65;;;5.05;;
73585;SDS011;61865;50.232;18.614;2023-09-30T13:02:18;13.27;;;5.22;;
73585;SDS011;61865;50.232;18.614;2023-09-30T13:04:42;16.63;;;5.18;;
73585;SDS011;61865;50.232;18.614;2023-09-30T13:07:05;11.85;;;5.32;;
73585;SDS011;61865;50.232;18.614;2023-09-30T13:09:27;16.60;;;5.22;;
73585;SDS011;61865;50.232;18.614;2023-09-30T13:11:49;17.23;;;5.80;;
73585;SDS011;61865;50.232;18.614;2023-09-30T13:14:11;10.40;;;5.15;;
73585;SDS011;61865;50.232;18.614;2023-09-30T13:16:34;11.30;;;5.35;;
73585;SDS011;61865;50.232;18.614;2023-09-30T13:18:56;13.80;;;5.15;;
73585;SDS011;61865;50.232;18.614;2023-09-30T13:21:19;13.60;;;5.75;;
73585;SDS011;61865;50.232;18.614;2023-09-30T13:23:42;12.13;;;5.35;;
73585;SDS011;61865;50.232;18.614;2023-09-30T13:26:04;16.23;;;5.25;;
73585;SDS011;61865;50.232;18.614;2023-09-30T13:28:26;11.38;;;4.38;;
73585;SDS011;61865;50.232;18.614;2023-09-30T13:30:49;10.93;;;4.30;;
73585;SDS011;61865;50.232;18.614;2023-09-30T13:33:11;10.65;;;3.50;;
73585;SDS011;61865;50.232;18.614;2023-09-30T13:35:33;12.02;;;3.45;;
73585;SDS011;61865;50.232;18.614;2023-09-30T13:37:58;10.90;;;3.55;;
73585;SDS011;61865;50.232;18.614;2023-09-30T13:40:20;11.13;;;3.90;;
73585;SDS011;61865;50.232;18.614;2023-09-30T13:42:43;12.10;;;3.72;;
73585;SDS011;61865;50.232;18.614;2023-09-30T13:45:06;8.80;;;3.03;;
73585;SDS011;61865;50.232;18.614;2023-09-30T13:47:28;10.88;;;3.67;;
73585;SDS011;61865;50.232;18.614;2023-09-30T13:49:50;11.02;;;3.38;;
73585;SDS011;61865;50.232;18.614;2023-09-30T13:52:13;7.32;;;3.25;;
73585;SDS011;61865;50.232;18.614;2023-09-30T13:54:36;7.25;;;3.05;;
73585;SDS011;61865;50.232;18.614;2023-09-30T13:56:58;9.60;;;3.90;;
73585;SDS011;61865;50.232;18.614;2023-09-30T13:59:21;10.60;;;3.30;;
73585;SDS011;61865;50.232;18.614;2023-09-30T14:01:43;7.75;;;3.00;;
73585;SDS011;61865;50.232;18.614;2023-09-30T14:04:06;6.97;;;3.10;;
73585;SDS011;61865;50.232;18.614;2023-09-30T14:06:28;8.15;;;3.25;;